Search for airport 
image banner adimage banner ad
image banner ad

VOTR - Tiruchirappalli

Located in Tiruchirappalli, India

ICAO - VOTR, IATA - TRZ

Data provided by Airmate  

General information

Coordinates: N10°45'56" E78°42'54"
Elevation is 290 feet MSL.
 
View others Airports in Tamil Nadu

Operational data

Open for public use
Current time UTC:
Current local time:
Weather
METAR: VOTR 280100Z 00000KT 2500 BR FEW016 26/24 Q1010 NOSIG
TAF: TAF VOTR 272300Z 2800/2906 VRB02KT 1500 BR SCT020 BKN100 BECMG 2803/2804 05010TK 4000 BR BECMG 2806/2807 6000 BECMG 2815/2816 VRB02KT 4000 BR BECMG 2821/2822 1500 BR BECMG 2903/2904 05010KT 4000 BR
View NOTAMs / SUP AIP / TFR affecting this airport [VIEW]
Communications frequencies: [VIEW]

Runways:

RWY identifierQFULength (ft)Width (ft)SurfaceLDA (ft)
0985°6115150ASP
27265°7949148

Airport contact information

Address: Tiruchirappalli India

Satellite view of VOTR